createdAt,value
2023-05-25T00:02:17.967Z,94.50
2023-05-25T00:04:48.258Z,94.90
2023-05-25T00:07:16.736Z,95.60
2023-05-25T00:09:46.426Z,96.00
2023-05-25T00:12:18.981Z,95.80
2023-05-25T00:14:49.037Z,95.20
2023-05-25T00:17:19.865Z,95.10
2023-05-25T00:19:47.745Z,95.10
2023-05-25T00:22:17.557Z,95.40
2023-05-25T00:24:45.480Z,95.20
2023-05-25T00:27:20.758Z,94.40
2023-05-25T00:29:53.931Z,93.50
2023-05-25T00:32:21.865Z,93.60
2023-05-25T00:34:49.892Z,94.70
2023-05-25T00:39:59.828Z,96.30
2023-05-25T00:42:29.382Z,95.40
2023-05-25T00:44:57.635Z,96.50
2023-05-25T00:47:34.267Z,94.80
2023-05-25T00:50:02.524Z,94.80
2023-05-25T00:52:30.533Z,95.30
2023-05-25T00:55:01.685Z,95.80
2023-05-25T00:57:34.268Z,95.70
2023-05-25T01:00:07.198Z,96.40
2023-05-25T01:02:42.539Z,95.60
2023-05-25T01:05:17.453Z,95.80
2023-05-25T01:07:45.862Z,95.90
2023-05-25T01:10:15.694Z,95.50
2023-05-25T01:12:46.325Z,95.60
2023-05-25T01:15:17.345Z,96.60
2023-05-25T01:17:46.488Z,97.70
2023-05-25T01:20:17.623Z,97.30
2023-05-25T01:22:51.375Z,97.00
2023-05-25T01:25:23.761Z,95.80
2023-05-25T01:27:58.252Z,94.90
2023-05-25T01:30:27.825Z,94.10
2023-05-25T01:32:55.907Z,94.30
2023-05-25T01:35:33.591Z,94.40
2023-05-25T01:38:03.450Z,95.90
2023-05-25T01:40:31.357Z,96.00
2023-05-25T01:42:59.329Z,94.80
2023-05-25T01:45:27.833Z,94.50
2023-05-25T01:48:19.542Z,94.70
2023-05-25T01:50:55.630Z,95.20
2023-05-25T01:53:33.282Z,94.90
2023-05-25T01:56:08.716Z,94.10
2023-05-25T01:58:41.134Z,94.20
2023-05-25T02:01:17.276Z,94.50
2023-05-25T02:03:50.235Z,95.20
2023-05-25T02:06:22.007Z,94.90
2023-05-25T02:08:57.257Z,94.70
2023-05-25T02:11:29.855Z,94.90
2023-05-25T02:13:57.826Z,95.30
2023-05-25T02:16:27.915Z,95.60
2023-05-25T02:18:58.050Z,95.40
2023-05-25T02:21:29.164Z,96.30
2023-05-25T02:23:59.032Z,96.40
2023-05-25T02:26:32.551Z,95.90
2023-05-25T02:29:01.934Z,96.20
2023-05-25T02:31:32.719Z,96.60
2023-05-25T02:34:01.001Z,95.60
2023-05-25T02:36:29.390Z,95.10
2023-05-25T02:38:58.807Z,94.90
2023-05-25T02:41:27.422Z,95.00
2023-05-25T02:43:55.388Z,95.00
2023-05-25T02:46:23.690Z,94.90
2023-05-25T02:48:51.953Z,95.10
2023-05-25T02:51:19.911Z,95.40
2023-05-25T02:53:48.187Z,94.90
2023-05-25T02:56:19.678Z,95.20
2023-05-25T02:58:48.144Z,94.70
2023-05-25T03:01:18.780Z,95.20
2023-05-25T03:03:52.380Z,95.30
2023-05-25T03:06:23.407Z,95.40
2023-05-25T03:08:51.282Z,95.70
2023-05-25T03:11:25.592Z,95.20
2023-05-25T03:13:56.436Z,94.50
2023-05-25T03:16:27.241Z,94.80
2023-05-25T03:18:55.446Z,96.40
2023-05-25T03:21:23.740Z,97.40
2023-05-25T03:23:53.434Z,97.40
2023-05-25T03:26:25.838Z,97.20
2023-05-25T03:28:53.723Z,96.50
2023-05-25T03:31:21.672Z,96.20
2023-05-25T03:33:49.529Z,94.70
2023-05-25T03:36:20.219Z,93.40
2023-05-25T03:38:48.519Z,93.80
2023-05-25T03:41:16.416Z,93.60
2023-05-25T03:43:46.122Z,93.90
2023-05-25T03:46:14.084Z,94.00
2023-05-25T03:48:42.026Z,94.20
2023-05-25T03:51:09.961Z,94.70
2023-05-25T03:53:45.469Z,94.90
2023-05-25T03:56:16.165Z,94.90
2023-05-25T03:58:45.371Z,95.00
2023-05-25T04:01:13.788Z,95.00
2023-05-25T04:03:41.870Z,95.70
2023-05-25T04:06:09.892Z,95.90
2023-05-25T04:08:40.978Z,95.70
2023-05-25T04:11:08.890Z,95.50
2023-05-25T04:13:36.844Z,95.40
2023-05-25T04:16:07.096Z,95.60
2023-05-25T04:18:36.092Z,97.00
2023-05-25T04:21:07.237Z,97.50
2023-05-25T04:23:38.244Z,96.70
2023-05-25T04:26:12.388Z,96.30
2023-05-25T04:28:41.723Z,96.30
2023-05-25T04:31:13.957Z,96.40
2023-05-25T04:33:44.360Z,96.70
2023-05-25T04:36:14.244Z,97.20
2023-05-25T04:38:42.927Z,96.80
2023-05-25T04:41:10.823Z,97.10
2023-05-25T04:43:56.761Z,97.20
2023-05-25T04:46:37.238Z,97.30
2023-05-25T04:49:05.610Z,98.10
2023-05-25T04:51:33.624Z,98.90
2023-05-25T04:54:01.867Z,98.30
2023-05-25T04:56:29.795Z,97.90
2023-05-25T04:59:06.363Z,97.50
2023-05-25T05:01:40.602Z,98.10
2023-05-25T05:04:09.211Z,98.80
2023-05-25T05:06:37.559Z,99.00
2023-05-25T05:09:08.681Z,98.20
2023-05-25T05:11:36.656Z,97.90
2023-05-25T05:14:04.565Z,98.00
2023-05-25T05:16:35.090Z,97.00
2023-05-25T05:19:04.837Z,96.50
2023-05-25T05:21:33.345Z,97.00
2023-05-25T05:24:01.285Z,97.20
2023-05-25T05:26:34.220Z,98.90
2023-05-25T05:29:09.206Z,99.20
2023-05-25T05:31:40.092Z,97.80
2023-05-25T05:34:09.431Z,97.90
2023-05-25T05:36:53.088Z,98.10
2023-05-25T05:39:27.382Z,98.20
2023-05-25T05:41:56.103Z,99.20
2023-05-25T05:44:26.824Z,98.60
2023-05-25T05:47:01.002Z,98.90
2023-05-25T05:49:31.733Z,99.70
2023-05-25T05:51:59.780Z,99.50
2023-05-25T05:54:28.575Z,99.90
2023-05-25T05:56:56.509Z,99.90
2023-05-25T05:59:27.266Z,99.90
2023-05-25T06:01:55.279Z,99.70
2023-05-25T06:04:25.319Z,99.90
2023-05-25T06:06:54.666Z,99.90
2023-05-25T06:09:22.664Z,99.90
2023-05-25T06:11:50.739Z,99.50
2023-05-25T06:14:18.640Z,99.00
2023-05-25T06:16:46.577Z,99.00
2023-05-25T06:19:14.628Z,99.50
2023-05-25T06:21:45.654Z,99.00
2023-05-25T06:24:15.944Z,98.90
2023-05-25T06:26:43.849Z,98.80
2023-05-25T06:29:17.151Z,98.60
2023-05-25T06:31:48.210Z,99.30
2023-05-25T06:34:16.172Z,98.50
2023-05-25T06:36:44.168Z,98.30
2023-05-25T06:39:12.068Z,98.80
2023-05-25T06:41:41.450Z,98.40
2023-05-25T06:44:09.603Z,98.10
2023-05-25T06:46:43.560Z,97.80
2023-05-25T06:49:20.330Z,97.80
2023-05-25T06:51:49.011Z,98.10
2023-05-25T06:54:16.908Z,99.00
2023-05-25T06:56:46.270Z,96.90
2023-05-25T06:59:20.245Z,96.90
2023-05-25T07:01:49.754Z,96.50
2023-05-25T07:04:17.955Z,96.90
2023-05-25T07:06:46.091Z,96.50
2023-05-25T07:09:14.020Z,96.30
2023-05-25T07:11:46.324Z,96.70
2023-05-25T07:14:14.257Z,96.80
2023-05-25T07:16:45.106Z,96.70
2023-05-25T07:19:13.253Z,96.60
2023-05-25T07:21:41.210Z,96.70
2023-05-25T07:24:09.423Z,97.30
2023-05-25T07:26:44.435Z,97.00
2023-05-25T07:29:16.558Z,97.10
2023-05-25T07:31:50.951Z,96.90
2023-05-25T07:34:27.154Z,97.40
2023-05-25T07:36:58.617Z,97.20
2023-05-25T07:39:26.729Z,98.10
2023-05-25T07:41:54.663Z,97.20
2023-05-25T07:44:23.922Z,97.70
2023-05-25T07:46:51.896Z,98.20
2023-05-25T07:49:22.686Z,97.60
2023-05-25T07:51:50.759Z,97.40
2023-05-25T07:54:18.651Z,97.40
2023-05-25T07:56:49.615Z,98.10
2023-05-25T07:59:17.518Z,98.30
2023-05-25T08:01:49.854Z,98.30
2023-05-25T08:04:17.875Z,97.50
2023-05-25T08:06:48.537Z,97.20
2023-05-25T08:09:16.500Z,97.40
2023-05-25T08:11:45.615Z,97.80
2023-05-25T08:14:13.682Z,96.70
2023-05-25T08:16:41.738Z,97.00
2023-05-25T08:19:14.847Z,99.40
2023-05-25T08:21:42.739Z,97.20
2023-05-25T08:24:15.957Z,98.40
2023-05-25T08:26:54.389Z,97.00
2023-05-25T08:29:23.161Z,97.10
2023-05-25T08:31:52.009Z,97.10
2023-05-25T08:34:28.502Z,97.70
2023-05-25T08:37:07.932Z,97.90
2023-05-25T08:39:36.040Z,97.60
2023-05-25T08:42:08.022Z,98.00
2023-05-25T08:44:40.077Z,97.70
2023-05-25T08:47:08.572Z,98.10
2023-05-25T08:49:39.900Z,97.20
2023-05-25T08:52:12.054Z,97.00
2023-05-25T08:54:42.014Z,97.00
2023-05-25T08:57:16.404Z,97.30
2023-05-25T08:59:48.595Z,97.90
2023-05-25T09:02:27.042Z,97.00
2023-05-25T09:05:02.695Z,97.30
2023-05-25T09:07:31.070Z,97.20
2023-05-25T09:10:01.083Z,97.40
2023-05-25T09:12:32.325Z,97.40
2023-05-25T09:15:00.859Z,97.30
2023-05-25T09:17:29.039Z,97.60
2023-05-25T09:19:59.542Z,98.20
2023-05-25T09:22:29.120Z,98.40
2023-05-25T09:24:57.493Z,97.00
2023-05-25T09:27:25.429Z,98.80
2023-05-25T09:29:53.762Z,97.70
2023-05-25T09:32:28.139Z,97.60
2023-05-25T09:35:07.617Z,97.20
2023-05-25T09:37:37.985Z,96.70
2023-05-25T09:40:07.276Z,97.50
2023-05-25T09:42:35.518Z,97.60
2023-05-25T09:45:04.514Z,97.60
2023-05-25T09:47:32.679Z,97.70
2023-05-25T09:50:04.066Z,99.90
2023-05-25T09:52:33.404Z,97.80
2023-05-25T09:55:03.718Z,97.90
2023-05-25T09:57:31.620Z,98.40
2023-05-25T10:00:00.161Z,98.20
2023-05-25T10:02:29.052Z,97.90
2023-05-25T10:04:57.692Z,98.00
2023-05-25T10:07:27.084Z,98.40
2023-05-25T10:09:56.751Z,98.80
2023-05-25T10:12:30.981Z,98.10
2023-05-25T10:15:02.728Z,98.10
2023-05-25T10:17:32.990Z,97.50
2023-05-25T10:20:08.488Z,97.80
2023-05-25T10:22:44.479Z,97.20
2023-05-25T10:25:24.300Z,97.60
2023-05-25T10:28:03.339Z,97.20
2023-05-25T10:30:31.600Z,97.70
2023-05-25T10:32:59.999Z,96.90
2023-05-25T10:35:28.534Z,96.90
2023-05-25T10:37:59.431Z,97.20
2023-05-25T10:40:28.054Z,97.40
2023-05-25T10:43:00.964Z,97.20
2023-05-25T10:45:29.669Z,96.80
2023-05-25T10:47:58.718Z,98.20
2023-05-25T10:50:28.769Z,97.70
2023-05-25T10:53:01.301Z,97.10
2023-05-25T10:55:32.724Z,96.50
2023-05-25T10:58:11.083Z,96.70
2023-05-25T11:00:39.523Z,96.40
2023-05-25T11:03:07.747Z,95.80
2023-05-25T11:05:39.598Z,96.90
2023-05-25T11:08:12.254Z,96.70
2023-05-25T11:10:54.503Z,96.70
2023-05-25T11:13:38.936Z,96.50
2023-05-25T11:16:24.311Z,96.50
2023-05-25T11:18:55.338Z,96.20
2023-05-25T11:21:45.515Z,96.40
2023-05-25T11:24:22.340Z,96.80
2023-05-25T11:27:24.633Z,96.60
2023-05-25T11:29:55.326Z,96.80
2023-05-25T11:32:23.679Z,97.20
2023-05-25T11:34:53.927Z,97.00
2023-05-25T11:37:24.852Z,98.00
2023-05-25T11:39:58.288Z,98.80
2023-05-25T11:42:27.747Z,97.10
2023-05-25T11:44:57.124Z,97.20
2023-05-25T11:47:32.723Z,97.10
2023-05-25T11:50:04.287Z,96.90
2023-05-25T11:52:32.278Z,97.40
2023-05-25T11:55:00.408Z,97.10
2023-05-25T11:57:28.332Z,97.00
2023-05-25T12:00:01.062Z,98.20
2023-05-25T12:02:29.188Z,97.70
2023-05-25T12:04:59.152Z,96.90
2023-05-25T12:07:28.485Z,96.50
2023-05-25T12:10:06.877Z,96.20
2023-05-25T12:12:44.576Z,96.70
2023-05-25T12:15:17.189Z,96.80
2023-05-25T12:17:50.195Z,96.60
2023-05-25T12:20:19.162Z,96.60
2023-05-25T12:22:48.245Z,96.40
2023-05-25T12:25:26.032Z,96.30
2023-05-25T12:28:15.712Z,97.00
2023-05-25T12:30:54.030Z,96.10
2023-05-25T12:33:22.937Z,96.70
2023-05-25T12:35:51.398Z,96.20
2023-05-25T12:38:23.379Z,96.40
2023-05-25T12:41:08.724Z,96.00
2023-05-25T12:43:40.227Z,96.50
2023-05-25T12:46:09.715Z,95.60
2023-05-25T12:48:43.167Z,95.60
2023-05-25T12:51:16.986Z,95.10
2023-05-25T12:53:49.117Z,95.80
2023-05-25T12:56:22.642Z,96.40
2023-05-25T12:58:50.577Z,96.20
2023-05-25T13:01:23.031Z,95.70
2023-05-25T13:03:51.576Z,95.90
2023-05-25T13:06:19.497Z,95.60
2023-05-25T13:08:49.725Z,95.90
2023-05-25T13:11:17.661Z,95.40
2023-05-25T13:13:46.057Z,96.30
2023-05-25T13:16:17.094Z,95.70
2023-05-25T13:18:48.572Z,95.30
2023-05-25T13:21:19.235Z,95.30
2023-05-25T13:23:49.439Z,95.20
2023-05-25T13:26:21.448Z,95.00
2023-05-25T13:28:52.277Z,96.00
2023-05-25T13:31:20.288Z,94.70
2023-05-25T13:33:56.359Z,94.30
2023-05-25T13:36:34.620Z,93.90
2023-05-25T13:39:07.284Z,93.10
2023-05-25T13:41:38.430Z,94.20
2023-05-25T13:44:16.536Z,94.20
2023-05-25T13:46:45.574Z,93.70
2023-05-25T13:49:16.227Z,94.80
2023-05-25T13:51:47.216Z,94.20
2023-05-25T13:54:15.835Z,94.00
2023-05-25T13:56:43.740Z,95.10
2023-05-25T13:59:11.838Z,93.50
2023-05-25T14:01:39.852Z,93.60
2023-05-25T14:04:08.122Z,94.00
2023-05-25T14:06:40.502Z,94.00
2023-05-25T14:09:12.101Z,94.10
2023-05-25T14:11:41.061Z,94.20
2023-05-25T14:14:13.772Z,94.00
2023-05-25T14:16:44.692Z,93.70
2023-05-25T14:19:12.766Z,94.90
2023-05-25T14:21:42.129Z,94.30
2023-05-25T14:24:10.759Z,94.40
2023-05-25T14:26:42.581Z,94.80
2023-05-25T14:29:12.886Z,93.80
2023-05-25T14:31:41.320Z,93.40
2023-05-25T14:34:09.577Z,93.50
2023-05-25T14:36:41.941Z,93.50
2023-05-25T14:39:15.749Z,94.00
2023-05-25T14:41:45.179Z,93.20
2023-05-25T14:44:13.056Z,93.10
2023-05-25T14:46:50.920Z,93.40
2023-05-25T14:49:27.339Z,93.70
2023-05-25T14:51:56.792Z,93.60
2023-05-25T14:54:24.741Z,93.70
2023-05-25T14:56:52.714Z,93.80
2023-05-25T14:59:23.510Z,93.70
2023-05-25T15:01:54.456Z,93.70
2023-05-25T15:04:22.475Z,93.60
2023-05-25T15:06:50.574Z,93.20
2023-05-25T15:09:20.196Z,93.70
2023-05-25T15:11:51.015Z,92.60
2023-05-25T15:14:25.096Z,92.20
2023-05-25T15:16:59.171Z,92.50
2023-05-25T15:19:27.061Z,92.90
2023-05-25T15:21:54.940Z,92.70
2023-05-25T15:24:29.197Z,92.90
2023-05-25T15:27:04.979Z,93.00
2023-05-25T15:29:32.892Z,93.30
2023-05-25T15:32:00.963Z,92.70
2023-05-25T15:34:29.218Z,92.60
2023-05-25T15:37:00.231Z,92.30
2023-05-25T15:39:31.902Z,92.80
2023-05-25T15:41:59.863Z,93.60
2023-05-25T15:44:27.978Z,93.30
2023-05-25T15:46:58.213Z,92.70
2023-05-25T15:49:28.889Z,92.70
2023-05-25T15:51:57.081Z,92.70
2023-05-25T15:54:25.022Z,92.60
2023-05-25T15:56:56.544Z,94.00
2023-05-25T15:59:24.478Z,93.50
2023-05-25T16:01:52.577Z,94.60
2023-05-25T16:04:20.974Z,92.90
2023-05-25T16:06:49.289Z,92.50
2023-05-25T16:09:17.365Z,92.20
2023-05-25T16:11:45.405Z,92.20
2023-05-25T16:14:14.996Z,92.30
2023-05-25T16:16:43.138Z,92.90
2023-05-25T16:19:13.727Z,92.90
2023-05-25T16:21:42.347Z,93.00
2023-05-25T16:24:10.534Z,92.70
2023-05-25T16:26:38.593Z,92.70
2023-05-25T16:29:06.712Z,93.30
2023-05-25T16:31:36.224Z,93.30
2023-05-25T16:34:04.347Z,93.80
2023-05-25T16:36:32.795Z,93.10
2023-05-25T16:39:01.023Z,92.90
2023-05-25T16:41:29.178Z,92.60
2023-05-25T16:43:57.455Z,93.00
2023-05-25T16:46:25.859Z,94.50
2023-05-25T16:48:55.417Z,92.50
2023-05-25T16:51:23.512Z,92.60
2023-05-25T16:53:53.049Z,93.70
2023-05-25T16:56:22.862Z,92.50
2023-05-25T16:58:50.963Z,92.40
2023-05-25T17:01:19.470Z,92.40
2023-05-25T17:03:47.675Z,91.90
2023-05-25T17:06:17.293Z,92.10
2023-05-25T17:08:45.392Z,92.50
2023-05-25T17:11:13.422Z,92.60
2023-05-25T17:13:41.432Z,92.20
2023-05-25T17:16:09.609Z,92.80
2023-05-25T17:18:37.693Z,92.30
2023-05-25T17:21:08.238Z,93.10
2023-05-25T17:23:37.771Z,92.70
2023-05-25T17:26:06.285Z,92.20
2023-05-25T17:28:34.513Z,94.30
2023-05-25T17:31:02.850Z,92.30
2023-05-25T17:33:30.909Z,92.90
2023-05-25T17:35:59.666Z,93.40
2023-05-25T17:38:28.405Z,93.20
2023-05-25T17:40:57.829Z,93.10
2023-05-25T17:43:25.855Z,93.40
2023-05-25T17:45:54.080Z,93.80
2023-05-25T17:48:22.518Z,93.50
2023-05-25T17:50:50.660Z,93.20
2023-05-25T17:53:18.725Z,93.00
2023-05-25T17:55:47.031Z,93.40
2023-05-25T17:58:18.708Z,92.80
2023-05-25T18:00:46.932Z,92.70
2023-05-25T18:03:15.140Z,93.00
2023-05-25T18:05:43.489Z,92.70
2023-05-25T18:08:11.813Z,92.60
2023-05-25T18:10:39.871Z,92.70
2023-05-25T18:13:08.009Z,93.00
2023-05-25T18:15:37.720Z,92.70
2023-05-25T18:18:08.402Z,92.60
2023-05-25T18:20:36.523Z,93.20
2023-05-25T18:23:08.114Z,93.20
2023-05-25T18:25:36.557Z,93.80
2023-05-25T18:28:04.595Z,93.40
2023-05-25T18:30:32.644Z,92.70
2023-05-25T18:33:02.253Z,92.70
2023-05-25T18:35:31.044Z,93.10
2023-05-25T18:37:59.135Z,93.50
2023-05-25T18:40:27.140Z,94.00
2023-05-25T18:42:56.547Z,93.60
2023-05-25T18:45:24.659Z,94.20
2023-05-25T18:47:52.767Z,94.00
2023-05-25T18:50:22.297Z,93.10
2023-05-25T18:52:51.534Z,92.90
2023-05-25T18:55:20.060Z,93.50
2023-05-25T18:57:48.103Z,93.50
2023-05-25T19:00:16.922Z,93.10
2023-05-25T19:02:45.110Z,93.80
2023-05-25T19:05:15.131Z,94.80
2023-05-25T19:07:58.415Z,94.40
2023-05-25T19:10:27.599Z,95.00
2023-05-25T19:12:55.742Z,94.60
2023-05-25T19:15:23.981Z,94.90
2023-05-25T19:17:52.080Z,95.10
2023-05-25T19:20:20.179Z,94.90
2023-05-25T19:22:49.624Z,94.80
2023-05-25T19:25:17.728Z,94.60
2023-05-25T19:27:45.773Z,94.70
2023-05-25T19:30:14.115Z,94.70
2023-05-25T19:32:42.205Z,94.80
2023-05-25T19:35:10.744Z,94.80
2023-05-25T19:37:40.778Z,94.60
2023-05-25T19:40:13.126Z,94.80
2023-05-25T19:42:41.244Z,94.80
2023-05-25T19:45:09.740Z,94.00
2023-05-25T19:47:37.873Z,94.50
2023-05-25T19:50:06.872Z,94.60
2023-05-25T19:52:34.984Z,93.30
2023-05-25T19:55:03.183Z,94.10
2023-05-25T19:57:32.649Z,93.80
2023-05-25T20:00:00.695Z,93.40
2023-05-25T20:02:28.862Z,93.30
2023-05-25T20:04:57.123Z,93.10
2023-05-25T20:07:25.202Z,94.30
2023-05-25T20:09:53.269Z,94.80
2023-05-25T20:12:21.828Z,94.20
2023-05-25T20:14:51.395Z,93.10
2023-05-25T20:17:19.402Z,92.40
2023-05-25T20:19:47.498Z,92.60
2023-05-25T20:22:15.574Z,93.10
2023-05-25T20:24:43.650Z,92.90
2023-05-25T20:27:11.701Z,93.80
2023-05-25T20:29:39.725Z,93.10
2023-05-25T20:32:09.356Z,93.50
2023-05-25T20:34:37.450Z,94.10
2023-05-25T20:37:05.799Z,94.20
2023-05-25T20:39:33.875Z,94.60
2023-05-25T20:42:02.690Z,95.20
2023-05-25T20:44:32.100Z,94.40
2023-05-25T20:47:00.172Z,94.60
2023-05-25T20:49:29.661Z,94.00
2023-05-25T20:51:57.780Z,94.50
2023-05-25T20:54:26.203Z,94.40
2023-05-25T20:56:54.334Z,94.40
2023-05-25T20:59:23.454Z,95.10
2023-05-25T21:01:51.668Z,95.30
2023-05-25T21:04:19.747Z,95.80
2023-05-25T21:06:49.386Z,95.80
2023-05-25T21:09:17.472Z,95.10
2023-05-25T21:11:45.681Z,94.90
2023-05-25T21:14:13.763Z,95.60
2023-05-25T21:16:41.991Z,95.10
2023-05-25T21:19:10.218Z,94.90
2023-05-25T21:21:39.100Z,95.70
2023-05-25T21:24:08.674Z,95.70
2023-05-25T21:26:36.823Z,93.70
2023-05-25T21:29:04.970Z,94.20
2023-05-25T21:31:33.120Z,94.20
2023-05-25T21:34:01.955Z,94.90
2023-05-25T21:36:30.393Z,92.30
2023-05-25T21:38:58.470Z,94.00
2023-05-25T21:41:29.032Z,93.60
2023-05-25T21:43:57.219Z,92.00
2023-05-25T21:46:25.948Z,92.30
2023-05-25T21:48:54.031Z,92.60
2023-05-25T21:51:22.161Z,93.30
2023-05-25T21:53:50.185Z,94.00
2023-05-25T21:56:18.267Z,92.30
2023-05-25T21:58:47.717Z,92.40
2023-05-25T22:01:15.873Z,93.10
2023-05-25T22:03:44.204Z,94.80
2023-05-25T22:06:12.340Z,94.60
2023-05-25T22:08:41.150Z,92.70
2023-05-25T22:11:09.497Z,93.30
2023-05-25T22:13:37.499Z,93.90
2023-05-25T22:16:07.369Z,94.00
2023-05-25T22:18:37.741Z,91.90
2023-05-25T22:21:06.515Z,92.10
2023-05-25T22:23:34.688Z,92.10
2023-05-25T22:26:02.818Z,94.40
2023-05-25T22:28:30.845Z,91.90
2023-05-25T22:30:58.952Z,92.40
2023-05-25T22:33:28.418Z,92.90
2023-05-25T22:35:56.517Z,92.70
2023-05-25T22:38:24.614Z,94.00
2023-05-25T22:40:52.695Z,92.20
2023-05-25T22:43:20.725Z,93.30
2023-05-25T22:45:48.807Z,93.20
2023-05-25T22:48:16.944Z,93.10
2023-05-25T22:50:46.388Z,92.90
2023-05-25T22:53:14.458Z,92.40
2023-05-25T22:55:43.620Z,92.60
2023-05-25T22:58:12.601Z,93.20
2023-05-25T23:00:40.738Z,92.90
2023-05-25T23:03:08.862Z,93.20
2023-05-25T23:05:36.945Z,93.10
2023-05-25T23:08:06.406Z,92.70
2023-05-25T23:10:34.408Z,92.70
2023-05-25T23:13:02.578Z,92.20
2023-05-25T23:15:30.737Z,93.00
2023-05-25T23:17:58.838Z,92.20
2023-05-25T23:20:26.950Z,92.80
2023-05-25T23:22:55.046Z,92.90
2023-05-25T23:25:24.594Z,94.10
2023-05-25T23:27:52.621Z,92.40
2023-05-25T23:30:20.737Z,92.60
2023-05-25T23:32:48.853Z,92.80
2023-05-25T23:35:17.125Z,93.20
2023-05-25T23:37:45.583Z,93.60
2023-05-25T23:40:13.654Z,93.40
2023-05-25T23:42:45.363Z,93.70
2023-05-25T23:45:13.866Z,93.60
2023-05-25T23:47:42.199Z,93.90
2023-05-25T23:50:11.334Z,95.10
2023-05-25T23:52:39.379Z,94.60
2023-05-25T23:55:08.749Z,94.40
2023-05-25T23:57:37.017Z,94.30
